Kezdőlap
METAR-TAF:

METAR-TAF

Repülőterek :

Umeå, Svédország

földrajzi szélesség: 63-48N, földrajzi hosszúság: 020-17E, magasság: 7 m

Jelenlegi meteorológiai megfigyelések

A jelentés 33 perccel ezelõtt készült, 05:50 UTC
Dél-délkeleti szél 3 kt
Hőmérséklet 3°C
Páratartalom 87%
Légköri nyomás 1004 hPa
Látótávolság 10 km, vagy több
felhőtlen 1500 m magasságban, és nincs gomolyfelhõ

METAR: ESNU 130550Z 16003KT CAVOK 03/01 Q1004

Idő: 08:23 (06:23 UTC)

Előrejelzés

A jelentés 53 perccel ezelõtt készült, 05:30 UTC
Az előrejelzés 13-én 06 óra UTC és 13-én 15 óra UTC között érvényes
Déli szél 6 kt
Látótávolság 10 km, vagy több
felhőtlen 1500 m magasságban, és nincs gomolyfelhõ

TAF: ESNU 130530Z 1306/1315 17006KT CAVOK

Meteorológiai megfigyelések és előrejelzések több, mint 4000 repülőtéren (METAR és TAF jelentéseket).

A térképen piros és sárga pontok jelzik az elérhető meteorológiai állomásokat.

Mozgassa az egeret a pont fölött, hogy megjelenjen az állomás neve.

Azután kattintson az időjárási megfigyelések és előrejelzések megtekintéséhez.

A térkép megváltoztatása: kattintson a fekete keresztel jelölt zöld gombra ráközelítéshez, a vonallal jelölt zöld gombra távolításhoz, vagy a zöld nyilakra a szomszédos térképek eléréséhez.


METAR-TAF: